Time;durP1;ratioP1;P1;durP2;ratioP2;P2;SDS_P1;SDS_P2;PMS_P1;PMS_P2;Temp;Humidity;BMP_temperature;BMP_pressure;BME280_temperature;BME280_humidity;BME280_pressure;Samples;Min_cycle;Max_cycle;Signal;HPM_P1;HPM_P2
2021/05/14 00:02:33;;;;;;;3.10;1.50;;;7.80;99.90;;;;;;6275336;28;20068;-75
2021/05/14 00:05:35;;;;;;;2.35;2.15;;;7.80;99.90;;;;;;6274705;28;20124;-75
2021/05/14 00:08:37;;;;;;;1.50;1.40;;;7.80;99.90;;;;;;6275238;28;20045;-75
2021/05/14 00:11:38;;;;;;;1.42;1.27;;;7.70;99.90;;;;;;6275495;28;20055;-75
2021/05/14 00:14:45;;;;;;;1.77;1.42;;;7.60;99.90;;;;;;6274969;28;20136;-75
2021/05/14 00:17:48;;;;;;;1.60;1.50;;;7.50;99.90;;;;;;6272245;28;20076;-76
2021/05/14 00:20:50;;;;;;;2.50;1.73;;;7.50;99.90;;;;;;6273604;28;20064;-75
2021/05/14 00:23:51;;;;;;;2.67;1.50;;;7.50;99.90;;;;;;6274748;28;20095;-76
2021/05/14 00:26:53;;;;;;;2.33;2.03;;;7.50;99.90;;;;;;6275074;28;20127;-75
2021/05/14 00:29:54;;;;;;;3.97;1.67;;;7.50;99.90;;;;;;6274309;28;20136;-75
2021/05/14 00:32:56;;;;;;;2.00;1.77;;;7.50;99.90;;;;;;6274855;28;20507;-75
2021/05/14 00:35:58;;;;;;;5.07;1.65;;;7.50;99.90;;;;;;6273943;28;20539;-75
2021/05/14 00:38:59;;;;;;;2.25;2.08;;;7.60;99.90;;;;;;6273936;28;20132;-75
2021/05/14 00:42:00;;;;;;;4.40;2.05;;;7.60;99.90;;;;;;6273950;28;20106;-75
2021/05/14 00:45:02;;;;;;;1.58;1.35;;;7.70;99.90;;;;;;6274008;28;20128;-75
2021/05/14 00:48:05;;;;;;;9.40;1.95;;;7.70;99.90;;;;;;6273838;28;20506;-75
2021/05/14 00:51:06;;;;;;;2.30;2.08;;;7.80;99.90;;;;;;6274806;28;20083;-75
2021/05/14 00:54:08;;;;;;;2.97;1.95;;;7.70;99.90;;;;;;6273840;28;20114;-75
2021/05/14 00:57:12;;;;;;;2.33;2.00;;;7.80;99.90;;;;;;6273749;28;20122;-75
2021/05/14 01:00:14;;;;;;;5.63;2.17;;;7.80;99.90;;;;;;6272926;28;20518;-75
2021/05/14 01:03:16;;;;;;;2.30;2.10;;;7.80;99.90;;;;;;6274156;28;20045;-75
2021/05/14 01:06:18;;;;;;;2.60;2.22;;;7.80;99.90;;;;;;6273469;28;20571;-75
2021/05/14 01:09:20;;;;;;;5.05;2.00;;;7.90;99.90;;;;;;6273461;28;20041;-75
2021/05/14 01:12:21;;;;;;;2.38;1.67;;;8.00;99.90;;;;;;6273754;28;20045;-75
2021/05/14 01:15:22;;;;;;;1.92;1.40;;;8.00;99.90;;;;;;6273768;28;20116;-75
2021/05/14 01:18:25;;;;;;;2.08;1.42;;;8.00;99.90;;;;;;6272996;28;20041;-75
2021/05/14 01:21:27;;;;;;;1.63;1.50;;;8.00;99.90;;;;;;6269541;28;20549;-75
2021/05/14 01:24:28;;;;;;;4.85;2.65;;;8.00;99.90;;;;;;6273460;28;20068;-75
2021/05/14 01:27:30;;;;;;;2.13;1.73;;;8.00;99.90;;;;;;6273629;28;20695;-75
2021/05/14 01:30:31;;;;;;;1.65;1.55;;;8.00;99.90;;;;;;6272757;28;20244;-76
2021/05/14 01:33:33;;;;;;;3.78;2.70;;;8.00;99.90;;;;;;6273011;28;20068;-75
2021/05/14 01:36:36;;;;;;;1.75;1.65;;;8.10;99.90;;;;;;6272736;28;20425;-75
2021/05/14 01:39:37;;;;;;;2.15;1.92;;;8.10;99.90;;;;;;6273394;28;20049;-75
2021/05/14 01:42:43;;;;;;;2.22;1.63;;;8.10;99.90;;;;;;6272574;28;20132;-75
2021/05/14 01:45:44;;;;;;;2.30;1.90;;;8.10;99.90;;;;;;6273086;28;20569;-75
2021/05/14 01:48:45;;;;;;;2.70;2.50;;;8.10;99.90;;;;;;6272309;28;20128;-75
2021/05/14 01:51:48;;;;;;;3.05;2.22;;;8.10;99.90;;;;;;6273131;28;20132;-75
2021/05/14 01:54:50;;;;;;;2.60;1.42;;;8.00;99.90;;;;;;6272578;28;20128;-75
2021/05/14 01:57:51;;;;;;;2.00;1.77;;;7.90;99.90;;;;;;6272626;28;20566;-75
2021/05/14 02:00:52;;;;;;;3.15;2.50;;;7.80;99.90;;;;;;6272244;28;20131;-75
2021/05/14 02:03:53;;;;;;;2.45;2.10;;;7.80;99.90;;;;;;6272328;28;20068;-75
2021/05/14 02:06:56;;;;;;;3.78;1.50;;;7.70;99.90;;;;;;6272787;28;20112;-75
2021/05/14 02:09:57;;;;;;;2.38;1.98;;;7.70;99.90;;;;;;6272481;28;20120;-75
2021/05/14 02:12:59;;;;;;;6.10;2.03;;;7.70;99.90;;;;;;6271373;28;20056;-75
2021/05/14 02:16:00;;;;;;;1.70;1.60;;;7.60;99.90;;;;;;6272205;28;20057;-75
2021/05/14 02:19:01;;;;;;;3.70;1.70;;;7.60;99.90;;;;;;6272440;28;20052;-75
2021/05/14 02:22:04;;;;;;;2.17;1.77;;;7.50;99.90;;;;;;6270573;28;20037;-75
2021/05/14 02:25:07;;;;;;;4.05;1.98;;;7.50;99.90;;;;;;6272113;28;20438;-75
2021/05/14 02:28:09;;;;;;;1.77;1.55;;;7.50;99.90;;;;;;6271843;28;20059;-74
2021/05/14 02:31:10;;;;;;;6.20;2.42;;;7.40;99.90;;;;;;6272207;28;20148;-75
2021/05/14 02:34:12;;;;;;;2.50;1.67;;;7.40;99.90;;;;;;6272427;28;20045;-75
2021/05/14 02:37:14;;;;;;;2.53;2.03;;;7.30;99.90;;;;;;6271834;28;20127;-75
2021/05/14 02:40:16;;;;;;;4.00;2.42;;;7.30;99.90;;;;;;6271242;28;20131;-75
2021/05/14 02:43:18;;;;;;;4.53;2.03;;;7.20;99.90;;;;;;6272022;28;20140;-75
2021/05/14 02:46:19;;;;;;;2.30;2.20;;;7.10;99.90;;;;;;6271619;28;20532;-75
2021/05/14 02:49:21;;;;;;;2.83;2.17;;;7.20;99.90;;;;;;6271470;28;20045;-75
2021/05/14 02:52:23;;;;;;;4.22;1.92;;;7.10;99.90;;;;;;6271788;28;20110;-75
2021/05/14 02:55:24;;;;;;;7.65;2.17;;;7.10;99.90;;;;;;6272121;28;20137;-75
2021/05/14 02:58:26;;;;;;;3.35;2.35;;;7.10;99.90;;;;;;6271759;28;20063;-75
2021/05/14 03:01:27;;;;;;;3.10;2.55;;;7.10;99.90;;;;;;6271403;28;20155;-75
2021/05/14 03:04:29;;;;;;;3.90;2.00;;;7.10;99.90;;;;;;6271810;28;20499;-75
2021/05/14 03:07:31;;;;;;;3.92;2.67;;;7.20;99.90;;;;;;6271964;28;20128;-75
2021/05/14 03:10:32;;;;;;;2.10;1.95;;;7.20;99.90;;;;;;6271550;28;20132;-75
2021/05/14 03:13:34;;;;;;;4.45;2.20;;;7.20;99.90;;;;;;6271489;28;20132;-75
2021/05/14 03:16:36;;;;;;;4.78;2.05;;;7.20;99.90;;;;;;6270953;28;20128;-75
2021/05/14 03:19:37;;;;;;;3.03;2.05;;;7.20;99.90;;;;;;6271695;28;20131;-75
2021/05/14 03:22:39;;;;;;;2.60;2.20;;;7.20;99.90;;;;;;6270216;28;20480;-75
2021/05/14 03:25:41;;;;;;;3.30;2.15;;;7.20;99.90;;;;;;6276121;28;20103;-76
2021/05/14 03:28:42;;;;;;;4.68;2.67;;;7.20;99.90;;;;;;6276081;28;20422;-75
2021/05/14 03:31:43;;;;;;;3.78;2.10;;;7.20;99.90;;;;;;6276750;28;20107;-76
2021/05/14 03:34:45;;;;;;;4.28;2.45;;;7.20;99.90;;;;;;6275629;28;20075;-76
2021/05/14 03:37:47;;;;;;;3.42;2.22;;;7.20;99.90;;;;;;6276122;28;20128;-76
2021/05/14 03:40:48;;;;;;;3.00;2.20;;;7.10;99.90;;;;;;6275617;28;20128;-76
2021/05/14 03:43:49;;;;;;;3.05;2.15;;;7.10;99.90;;;;;;6276272;28;20545;-75
2021/05/14 03:46:51;;;;;;;2.30;2.10;;;7.10;99.90;;;;;;6277117;28;20084;-75
2021/05/14 03:49:52;;;;;;;3.80;2.38;;;7.10;99.90;;;;;;6265440;28;20071;-76
2021/05/14 03:52:54;;;;;;;4.47;2.83;;;7.10;99.90;;;;;;6275538;28;20069;-75
2021/05/14 03:55:56;;;;;;;2.72;2.47;;;7.10;99.90;;;;;;6274756;28;20045;-76
2021/05/14 03:58:58;;;;;;;3.05;2.65;;;7.10;99.90;;;;;;6275598;28;20087;-77
2021/05/14 04:02:00;;;;;;;2.80;2.55;;;7.10;99.90;;;;;;6275278;28;20083;-76
2021/05/14 04:05:01;;;;;;;3.13;2.25;;;7.10;99.90;;;;;;6273961;28;20052;-76
2021/05/14 04:08:04;;;;;;;3.78;2.20;;;7.10;99.90;;;;;;6274827;28;20052;-75
2021/05/14 04:14:29;;;;;;;10.27;3.85;;;7.20;99.90;;;;;;6271563;28;20043;-75
2021/05/14 04:17:31;;;;;;;3.30;2.20;;;7.20;99.90;;;;;;6275118;28;20434;-76
2021/05/14 04:20:32;;;;;;;2.53;2.13;;;7.20;99.90;;;;;;6274245;28;20041;-76
2021/05/14 04:23:35;;;;;;;5.40;2.15;;;7.20;99.90;;;;;;6273831;28;20056;-76
2021/05/14 04:26:36;;;;;;;2.25;2.05;;;7.30;99.90;;;;;;6274177;28;20095;-76
2021/05/14 04:29:37;;;;;;;4.00;2.38;;;7.40;99.90;;;;;;6274047;28;20186;-76
2021/05/14 04:32:39;;;;;;;3.10;2.28;;;7.40;99.90;;;;;;6274552;28;20049;-76
2021/05/14 04:35:40;;;;;;;5.85;2.15;;;7.50;99.90;;;;;;6273947;28;20469;-75
2021/05/14 04:38:42;;;;;;;4.22;1.77;;;7.60;99.90;;;;;;6274182;28;20069;-76
2021/05/14 04:41:44;;;;;;;5.22;2.13;;;7.70;99.90;;;;;;6274024;28;20136;-75
2021/05/14 04:44:45;;;;;;;4.05;2.50;;;7.70;99.90;;;;;;6274171;28;20052;-76
2021/05/14 04:47:46;;;;;;;4.53;2.17;;;7.90;99.90;;;;;;6274456;28;20136;-76
2021/05/14 04:50:47;;;;;;;4.43;2.22;;;8.00;99.90;;;;;;6273749;28;20124;-76
2021/05/14 04:53:50;;;;;;;5.25;2.85;;;8.20;99.90;;;;;;6273915;28;20055;-75
2021/05/14 04:56:51;;;;;;;2.08;1.98;;;8.40;99.90;;;;;;6273845;28;20118;-75
2021/05/14 04:59:52;;;;;;;2.78;2.35;;;8.60;99.90;;;;;;6273524;28;20056;-76
2021/05/14 05:02:54;;;;;;;2.58;1.95;;;8.90;99.90;;;;;;6273891;28;20497;-76
2021/05/14 05:05:56;;;;;;;2.47;2.28;;;9.10;99.90;;;;;;6273905;28;20122;-76
2021/05/14 05:08:59;;;;;;;3.85;1.77;;;9.50;99.90;;;;;;6273277;28;20084;-76
2021/05/14 05:12:00;;;;;;;3.63;1.80;;;10.70;99.90;;;;;;6273827;28;20053;-76
2021/05/14 05:15:01;;;;;;;3.92;2.13;;;11.70;98.30;;;;;;6273979;28;20080;-76
2021/05/14 05:18:03;;;;;;;1.90;1.70;;;11.90;96.30;;;;;;6273377;28;20057;-76
2021/05/14 05:21:05;;;;;;;2.45;1.40;;;11.80;95.60;;;;;;6272714;28;20135;-76
2021/05/14 05:24:08;;;;;;;2.60;1.67;;;11.60;95.60;;;;;;6271954;28;20179;-76
2021/05/14 05:27:10;;;;;;;3.00;1.88;;;11.50;95.90;;;;;;6273587;28;20052;-76
2021/05/14 05:30:12;;;;;;;2.03;1.92;;;11.50;96.10;;;;;;6272778;28;20072;-76
2021/05/14 05:33:13;;;;;;;3.78;2.08;;;11.50;96.00;;;;;;6273809;28;20128;-76
2021/05/14 05:36:15;;;;;;;2.05;1.85;;;11.60;95.70;;;;;;6273431;28;20068;-76
2021/05/14 05:39:17;;;;;;;3.63;2.83;;;11.80;95.20;;;;;;6273278;28;20131;-76
2021/05/14 05:42:18;;;;;;;2.60;1.95;;;11.90;94.30;;;;;;6273633;28;20124;-76
2021/05/14 05:45:20;;;;;;;4.00;1.80;;;12.00;94.00;;;;;;6273213;28;20076;-76
2021/05/14 05:48:21;;;;;;;2.10;1.67;;;12.00;93.40;;;;;;6273000;28;20572;-76
2021/05/14 05:51:22;;;;;;;2.30;1.83;;;12.10;92.80;;;;;;6273098;28;20553;-76
2021/05/14 05:54:25;;;;;;;2.10;1.80;;;12.40;92.50;;;;;;6272496;28;20132;-76
2021/05/14 05:57:26;;;;;;;3.33;1.92;;;12.90;91.20;;;;;;6273038;28;20049;-76
2021/05/14 06:00:28;;;;;;;2.22;1.40;;;13.40;89.90;;;;;;6272609;28;20128;-76
2021/05/14 06:03:29;;;;;;;2.03;1.27;;;13.90;87.70;;;;;;6271049;28;20045;-76
2021/05/14 06:06:30;;;;;;;1.65;1.48;;;14.10;85.50;;;;;;6265892;28;20068;-77
2021/05/14 06:09:33;;;;;;;5.13;1.90;;;14.00;84.60;;;;;;6275409;28;20087;-77
2021/05/14 06:12:34;;;;;;;1.65;1.50;;;14.00;84.70;;;;;;6276241;28;20074;-77
2021/05/14 06:15:35;;;;;;;2.22;1.75;;;14.10;83.90;;;;;;6276709;28;20136;-77
2021/05/14 06:18:38;;;;;;;1.20;1.10;;;14.50;81.20;;;;;;6274555;28;20056;-75
2021/05/14 06:21:45;;;;;;;1.90;1.67;;;14.90;79.10;;;;;;6272521;28;20454;-77
2021/05/14 06:24:47;;;;;;;4.50;1.50;;;15.10;77.00;;;;;;6270906;28;20131;-75
2021/05/14 06:27:50;;;;;;;2.50;1.65;;;15.00;77.40;;;;;;6272199;28;20053;-78
2021/05/14 06:30:52;;;;;;;3.78;2.20;;;14.90;77.60;;;;;;6273364;28;20049;-78
2021/05/14 06:33:53;;;;;;;2.40;2.00;;;15.00;77.70;;;;;;6273770;28;20055;-77
2021/05/14 06:36:54;;;;;;;1.77;1.55;;;15.00;77.90;;;;;;6274281;28;20044;-78
2021/05/14 06:39:57;;;;;;;2.10;1.27;;;15.10;76.10;;;;;;6273344;28;20041;-79
2021/05/14 06:42:58;;;;;;;3.00;1.35;;;15.10;76.00;;;;;;6273513;28;20088;-78
2021/05/14 06:46:01;;;;;;;2.20;1.60;;;15.10;76.20;;;;;;6278156;28;20045;-78
2021/05/14 06:49:06;;;;;;;1.70;1.60;;;15.20;76.30;;;;;;6281312;28;20056;-77
2021/05/14 06:52:07;;;;;;;1.33;1.10;;;15.40;75.40;;;;;;6281810;28;20102;-77
2021/05/14 06:55:11;;;;;;;1.10;1.00;;;15.50;74.50;;;;;;6280157;28;20053;-78
2021/05/14 06:58:13;;;;;;;4.43;1.45;;;15.70;73.50;;;;;;6276045;28;20067;-77
2021/05/14 07:01:14;;;;;;;2.80;1.50;;;15.90;73.10;;;;;;6278212;28;20132;-78
2021/05/14 07:04:16;;;;;;;1.08;1.00;;;16.10;71.70;;;;;;6278503;28;20066;-77
2021/05/14 07:07:18;;;;;;;1.45;0.98;;;16.20;71.00;;;;;;6279993;28;20052;-78
2021/05/14 07:10:21;;;;;;;1.25;1.05;;;16.30;70.70;;;;;;6276740;28;20045;-78
2021/05/14 07:13:22;;;;;;;1.08;1.05;;;16.40;69.50;;;;;;6277305;28;20041;-76
2021/05/14 07:16:23;;;;;;;1.65;1.10;;;16.50;69.00;;;;;;6276387;28;20551;-77
2021/05/14 07:19:26;;;;;;;1.17;0.68;;;16.80;68.50;;;;;;6276345;28;20052;-77
2021/05/14 07:22:28;;;;;;;2.38;1.20;;;16.90;67.70;;;;;;6276122;28;20066;-77
2021/05/14 07:25:30;;;;;;;5.03;1.42;;;17.10;66.80;;;;;;6275540;28;20128;-77
2021/05/14 07:28:31;;;;;;;1.00;0.80;;;17.40;66.80;;;;;;6275178;28;20065;-77
2021/05/14 07:31:33;;;;;;;3.78;0.82;;;17.70;65.00;;;;;;6277572;28;20049;-78
2021/05/14 07:34:34;;;;;;;1.05;0.80;;;17.90;64.50;;;;;;6276870;28;20045;-77
2021/05/14 07:37:36;;;;;;;1.95;0.80;;;18.30;63.10;;;;;;6276803;28;20072;-77
2021/05/14 07:40:38;;;;;;;3.90;0.60;;;18.50;61.60;;;;;;6278150;28;20070;-77
2021/05/14 07:43:40;;;;;;;2.05;0.55;;;18.70;60.10;;;;;;6277695;28;20136;-77
2021/05/14 07:46:41;;;;;;;1.27;0.52;;;18.90;58.80;;;;;;6277100;28;20610;-77
2021/05/14 07:49:42;;;;;;;0.80;0.80;;;19.20;58.50;;;;;;6276232;28;20045;-77
2021/05/14 07:52:45;;;;;;;0.50;0.45;;;19.30;58.20;;;;;;6275330;28;20400;-77
2021/05/14 07:55:47;;;;;;;0.40;0.32;;;19.40;56.20;;;;;;6275334;28;20410;-76
2021/05/14 07:58:48;;;;;;;0.57;0.47;;;19.50;56.50;;;;;;6275076;28;20118;-77
2021/05/14 08:01:50;;;;;;;2.65;0.40;;;19.40;56.10;;;;;;6274775;28;20527;-77
2021/05/14 08:04:51;;;;;;;1.10;0.38;;;19.40;56.90;;;;;;6275142;28;20079;-77
2021/05/14 08:08:00;;;;;;;0.60;0.60;;;19.50;55.40;;;;;;6275105;28;20144;-75
2021/05/14 08:11:02;;;;;;;2.60;0.80;;;19.50;56.10;;;;;;6273859;28;20534;-77
2021/05/14 08:14:04;;;;;;;0.57;0.50;;;19.80;55.20;;;;;;6274394;28;20072;-77
2021/05/14 08:17:05;;;;;;;0.93;0.60;;;19.90;54.20;;;;;;6274871;28;20128;-77
2021/05/14 08:20:09;;;;;;;0.82;0.60;;;20.00;54.30;;;;;;6274247;28;20183;-77
2021/05/14 08:23:10;;;;;;;0.60;0.60;;;20.20;53.30;;;;;;6275286;28;20128;-77
2021/05/14 08:26:12;;;;;;;2.55;0.50;;;20.40;52.70;;;;;;6273718;28;20116;-76
2021/05/14 08:29:14;;;;;;;0.68;0.57;;;20.60;52.00;;;;;;6272810;28;20482;-77
2021/05/14 08:32:15;;;;;;;0.85;0.30;;;20.80;52.10;;;;;;6274569;28;20091;-77
2021/05/14 08:35:16;;;;;;;1.05;0.47;;;20.80;50.50;;;;;;6274267;28;20045;-77
2021/05/14 08:38:17;;;;;;;1.52;0.38;;;20.60;51.60;;;;;;6274278;28;20128;-76
2021/05/14 08:41:20;;;;;;;2.08;0.50;;;20.30;51.80;;;;;;6273531;28;20069;-77
2021/05/14 08:44:21;;;;;;;0.65;0.50;;;20.60;51.70;;;;;;6274165;28;20041;-77
2021/05/14 08:47:23;;;;;;;0.40;0.40;;;20.80;51.10;;;;;;6274481;28;20132;-77
2021/05/14 08:50:27;;;;;;;2.28;0.35;;;20.70;51.80;;;;;;6273706;28;20128;-77
2021/05/14 08:53:28;;;;;;;1.13;0.40;;;21.00;50.00;;;;;;6273895;28;20101;-77
2021/05/14 08:56:32;;;;;;;2.78;0.30;;;21.50;48.50;;;;;;6273412;28;20052;-77
2021/05/14 08:59:33;;;;;;;1.75;0.70;;;21.50;48.30;;;;;;6274577;28;20049;-77
2021/05/14 09:02:35;;;;;;;1.13;0.60;;;21.40;48.80;;;;;;6273973;28;20073;-78
2021/05/14 09:05:37;;;;;;;0.50;0.30;;;21.50;48.30;;;;;;6273848;28;20422;-77
2021/05/14 09:08:38;;;;;;;0.30;0.30;;;21.60;47.20;;;;;;6273832;28;20118;-78
2021/05/14 09:11:42;;;;;;;1.63;0.40;;;21.20;48.00;;;;;;6274390;28;20580;-77
2021/05/14 09:14:44;;;;;;;1.30;0.60;;;21.10;49.20;;;;;;6273379;28;20056;-78
2021/05/14 09:18:05;;;;;;;2.40;0.47;;;21.60;47.90;;;;;;6273433;28;20045;-76
2021/05/14 09:21:06;;;;;;;1.52;0.50;;;21.40;48.30;;;;;;6272503;28;20076;-76
2021/05/14 09:24:08;;;;;;;2.53;0.40;;;22.20;54.40;;;;;;6273225;28;20128;-77
2021/05/14 09:27:29;;;;;;;3.03;0.40;;;22.60;45.50;;;;;;6270733;28;20922;-76
2021/05/14 09:30:32;;;;;;;0.60;0.30;;;22.90;45.30;;;;;;6272187;28;20128;-77
2021/05/14 09:33:34;;;;;;;1.33;0.32;;;23.40;43.50;;;;;;6272958;28;20049;-77
2021/05/14 09:36:35;;;;;;;0.88;0.30;;;23.70;43.20;;;;;;6272910;28;20069;-77
2021/05/14 09:39:37;;;;;;;0.50;0.40;;;23.70;42.30;;;;;;6272708;28;20183;-77
2021/05/14 09:42:39;;;;;;;1.75;0.35;;;23.00;43.00;;;;;;6272747;28;20068;-75
2021/05/14 09:45:41;;;;;;;0.63;0.40;;;22.90;44.40;;;;;;6273879;28;20048;-77
2021/05/14 09:48:55;;;;;;;0.47;0.47;;;22.60;44.30;;;;;;6272392;28;20075;-76
2021/05/14 09:52:00;;;;;;;1.23;0.30;;;22.70;44.10;;;;;;6272162;28;20045;-77
2021/05/14 09:55:01;;;;;;;1.33;0.40;;;22.90;42.80;;;;;;6273565;28;20060;-74
2021/05/14 09:58:10;;;;;;;0.35;0.30;;;22.90;43.80;;;;;;6272736;28;20485;-75
2021/05/14 10:01:12;;;;;;;0.90;0.50;;;23.10;43.80;;;;;;6272864;28;20045;-74
2021/05/14 10:04:13;;;;;;;0.57;0.40;;;23.30;44.20;;;;;;6272310;28;20041;-76
2021/05/14 10:07:16;;;;;;;0.50;0.38;;;23.30;43.00;;;;;;6273014;28;20164;-74
2021/05/14 10:10:19;;;;;;;2.10;0.38;;;22.90;43.70;;;;;;6271980;28;20069;-76
2021/05/14 10:13:21;;;;;;;0.68;0.32;;;22.60;44.90;;;;;;6264932;28;20132;-76
2021/05/14 10:16:22;;;;;;;0.50;0.50;;;22.50;45.10;;;;;;6247311;28;20037;-76
2021/05/14 10:19:24;;;;;;;1.30;0.40;;;22.70;47.50;;;;;;6247797;28;20060;-76
2021/05/14 10:22:26;;;;;;;4.28;0.70;;;22.80;44.90;;;;;;6247395;28;20124;-76
2021/05/14 10:25:48;;;;;;;2.10;0.50;;;22.90;43.90;;;;;;6247336;28;20455;-78
2021/05/14 10:28:50;;;;;;;4.30;0.80;;;22.80;43.40;;;;;;6247072;28;20052;-77
2021/05/14 10:31:52;;;;;;;4.15;0.55;;;22.60;43.20;;;;;;6246608;28;20507;-76
2021/05/14 10:35:03;;;;;;;1.08;0.38;;;22.60;43.80;;;;;;6247419;28;20053;-77
2021/05/14 10:38:05;;;;;;;1.90;0.50;;;22.80;43.50;;;;;;6246381;28;20121;-77
2021/05/14 10:41:24;;;;;;;1.38;0.65;;;23.00;44.10;;;;;;6246326;28;20069;-77
2021/05/14 10:44:56;;;;;;;0.65;0.38;;;23.00;42.90;;;;;;6246966;28;20595;-78
2021/05/14 10:47:58;;;;;;;1.15;0.65;;;22.40;42.90;;;;;;6247698;28;20109;-76
2021/05/14 10:51:01;;;;;;;2.72;0.60;;;22.40;42.60;;;;;;6248033;28;20049;-77
2021/05/14 10:54:02;;;;;;;0.88;0.35;;;22.50;42.70;;;;;;6247207;28;20140;-77
2021/05/14 10:57:04;;;;;;;1.05;0.50;;;22.50;42.40;;;;;;6246923;28;20451;-77
2021/05/14 11:00:32;;;;;;;0.70;0.50;;;22.30;42.30;;;;;;6246884;28;20049;-76
2021/05/14 11:03:34;;;;;;;1.15;0.30;;;22.50;42.50;;;;;;6248180;28;20057;-76
2021/05/14 11:06:42;;;;;;;1.25;0.20;;;22.70;40.60;;;;;;6246900;28;20145;-76
2021/05/14 11:09:44;;;;;;;0.82;0.57;;;22.80;40.10;;;;;;6246439;28;20050;-77
2021/05/14 11:12:46;;;;;;;0.75;0.43;;;23.00;40.90;;;;;;6247530;28;20049;-77
2021/05/14 11:15:48;;;;;;;0.82;0.38;;;23.10;39.90;;;;;;6247118;28;20076;-76
2021/05/14 11:18:50;;;;;;;0.50;0.40;;;23.20;40.30;;;;;;6247123;28;20041;-77
2021/05/14 11:22:08;;;;;;;1.30;0.30;;;23.10;39.70;;;;;;6246556;28;20045;-77
2021/05/14 11:25:13;;;;;;;0.40;0.40;;;23.00;41.50;;;;;;6247287;28;20064;-76
2021/05/14 11:28:15;;;;;;;2.05;0.40;;;23.30;37.80;;;;;;6246282;28;20551;-77
2021/05/14 11:31:19;;;;;;;0.30;0.20;;;23.50;37.70;;;;;;6269502;28;20041;-77
2021/05/14 11:34:20;;;;;;;1.17;0.30;;;23.50;37.20;;;;;;6270967;28;20057;-76
2021/05/14 11:37:23;;;;;;;2.13;0.40;;;23.40;37.60;;;;;;6271267;28;20049;-77
2021/05/14 11:40:26;;;;;;;1.02;0.52;;;23.10;38.00;;;;;;6270997;28;20474;-76
2021/05/14 11:43:29;;;;;;;0.85;0.40;;;22.80;38.90;;;;;;6271941;28;20485;-76
2021/05/14 11:46:34;;;;;;;1.23;0.90;;;22.50;40.00;;;;;;6275471;28;20045;-76
2021/05/14 11:49:38;;;;;;;0.50;0.28;;;22.70;40.80;;;;;;6275281;28;20088;-76
2021/05/14 11:52:41;;;;;;;2.92;1.05;;;23.00;41.40;;;;;;6276060;28;20099;-75
2021/05/14 11:55:44;;;;;;;0.95;0.47;;;23.30;39.90;;;;;;6275875;28;20048;-75
2021/05/14 11:58:45;;;;;;;1.75;0.45;;;23.40;39.30;;;;;;6275335;28;20086;-77
2021/05/14 12:01:47;;;;;;;1.23;0.45;;;23.20;39.30;;;;;;6275869;28;20130;-77
2021/05/14 12:04:52;;;;;;;0.65;0.30;;;22.90;39.60;;;;;;6275606;28;20069;-76
2021/05/14 12:07:54;;;;;;;1.80;0.30;;;22.70;40.20;;;;;;6275279;28;20064;-76
2021/05/14 12:10:56;;;;;;;0.60;0.30;;;22.80;41.90;;;;;;6275936;28;20081;-77
2021/05/14 12:13:58;;;;;;;0.77;0.32;;;22.80;40.40;;;;;;6276147;28;20499;-75
2021/05/14 12:17:00;;;;;;;0.52;0.30;;;22.90;40.70;;;;;;6274217;28;20081;-75
2021/05/14 12:20:15;;;;;;;0.50;0.30;;;23.00;39.60;;;;;;6273713;28;20136;-75
2021/05/14 12:23:22;;;;;;;1.20;0.65;;;23.00;38.90;;;;;;6275049;28;20499;-76
2021/05/14 12:26:28;;;;;;;1.52;0.52;;;23.10;38.80;;;;;;6275148;28;20136;-76
2021/05/14 12:29:30;;;;;;;2.78;0.40;;;23.20;39.30;;;;;;6274544;28;20458;-75
2021/05/14 12:32:32;;;;;;;0.60;0.30;;;23.40;39.80;;;;;;6273985;28;20044;-76
2021/05/14 12:35:33;;;;;;;1.08;0.40;;;23.50;38.80;;;;;;6275253;28;20142;-76
2021/05/14 12:38:40;;;;;;;1.50;0.40;;;23.70;38.20;;;;;;6274307;28;20091;-76
2021/05/14 12:41:42;;;;;;;0.52;0.50;;;23.70;37.50;;;;;;6274098;28;20426;-76
2021/05/14 12:44:48;;;;;;;2.35;0.40;;;23.50;38.40;;;;;;6274440;28;20060;-76
2021/05/14 12:47:57;;;;;;;1.58;0.43;;;23.40;39.40;;;;;;6275062;28;20056;-76
2021/05/14 12:50:58;;;;;;;1.38;0.50;;;23.00;40.30;;;;;;6275065;28;20135;-76
2021/05/14 12:53:59;;;;;;;3.63;1.15;;;22.50;39.60;;;;;;6274640;28;20122;-75
2021/05/14 12:57:01;;;;;;;1.40;0.30;;;22.10;41.40;;;;;;6273580;28;20095;-76
2021/05/14 13:00:06;;;;;;;3.75;0.77;;;21.60;43.60;;;;;;6274440;28;20159;-75
2021/05/14 13:03:10;;;;;;;1.17;0.40;;;21.10;45.90;;;;;;6275698;28;20114;-77
2021/05/14 13:06:12;;;;;;;2.25;0.82;;;20.50;51.00;;;;;;6275408;28;20072;-76
2021/05/14 13:09:14;;;;;;;4.80;1.05;;;19.80;59.90;;;;;;6275012;28;20072;-75
2021/05/14 13:12:16;;;;;;;2.40;0.80;;;18.70;62.70;;;;;;6275486;28;20123;-75
2021/05/14 13:15:18;;;;;;;3.00;1.00;;;17.70;68.40;;;;;;6299938;28;20037;-75
2021/05/14 13:18:34;;;;;;;19.60;16.60;;;17.00;71.20;;;;;;6305861;28;20167;-75
2021/05/14 13:21:35;;;;;;;21.65;19.27;;;16.60;74.60;;;;;;6305497;28;20291;-76
2021/05/14 13:24:36;;;;;;;17.50;14.73;;;16.30;75.80;;;;;;6305145;28;20024;-75
2021/05/14 13:27:39;;;;;;;5.22;1.15;;;16.30;78.20;;;;;;6305820;28;20040;-76
2021/05/14 13:30:41;;;;;;;16.98;13.07;;;16.30;81.80;;;;;;6304754;28;20040;-75
2021/05/14 13:33:43;;;;;;;67.05;60.95;;;16.40;82.80;;;;;;6302754;28;20037;-75
2021/05/14 13:36:45;;;;;;;8.25;7.32;;;16.40;80.90;;;;;;6304244;28;20041;-75
2021/05/14 13:39:46;;;;;;;7.38;3.47;;;16.60;82.90;;;;;;6288338;28;20084;-74
2021/05/14 13:42:47;;;;;;;2.53;1.08;;;16.70;80.60;;;;;;6276063;28;20041;-75
2021/05/14 13:45:49;;;;;;;1.20;0.88;;;16.80;79.30;;;;;;6277289;28;20064;-75
2021/05/14 13:48:51;;;;;;;1.45;1.25;;;16.80;82.50;;;;;;6276987;28;20094;-75
2021/05/14 13:51:52;;;;;;;1.75;1.10;;;16.80;82.90;;;;;;6273847;28;20674;-74
2021/05/14 13:54:54;;;;;;;2.88;0.80;;;16.80;83.40;;;;;;6275735;28;20131;-74
2021/05/14 13:57:55;;;;;;;1.50;0.60;;;16.70;80.50;;;;;;6275538;28;20127;-75
2021/05/14 14:00:56;;;;;;;2.17;0.93;;;16.60;81.90;;;;;;6274236;28;20045;-76
2021/05/14 14:04:00;;;;;;;2.80;1.27;;;16.50;82.00;;;;;;6273774;28;20140;-74
2021/05/14 14:07:03;;;;;;;4.03;1.73;;;16.30;82.70;;;;;;6274440;28;20048;-76
2021/05/14 14:10:07;;;;;;;1.35;0.80;;;16.20;84.60;;;;;;6273119;28;20052;-75
2021/05/14 14:13:09;;;;;;;2.97;2.30;;;16.10;85.60;;;;;;6272854;28;20116;-77
2021/05/14 14:16:11;;;;;;;0.80;0.80;;;16.00;87.70;;;;;;6273772;28;20072;-78
2021/05/14 14:19:13;;;;;;;1.00;0.80;;;16.00;87.00;;;;;;6275133;28;20570;-75
2021/05/14 14:22:14;;;;;;;69.75;63.53;;;16.00;86.50;;;;;;6275122;28;20056;-78
2021/05/14 14:25:16;;;;;;;4.72;4.22;;;16.00;86.40;;;;;;6274791;28;20531;-77
2021/05/14 14:28:17;;;;;;;4.43;3.22;;;16.10;85.10;;;;;;6273789;28;20210;-77
2021/05/14 14:31:18;;;;;;;5.60;3.65;;;16.10;82.10;;;;;;6273482;28;20135;-77
2021/05/14 14:34:20;;;;;;;4.18;3.58;;;16.00;78.90;;;;;;6271383;28;20537;-76
2021/05/14 14:37:22;;;;;;;3.72;1.90;;;16.00;77.70;;;;;;6272184;28;20040;-76
2021/05/14 14:40:23;;;;;;;2.95;1.00;;;15.90;76.90;;;;;;6272183;28;20537;-78
2021/05/14 14:43:24;;;;;;;1.13;0.75;;;15.70;77.20;;;;;;6272663;28;20068;-76
2021/05/14 14:46:26;;;;;;;1.08;0.88;;;15.60;77.00;;;;;;6272177;28;20127;-76
2021/05/14 14:49:28;;;;;;;1.73;1.00;;;15.40;76.10;;;;;;6271814;28;20048;-76
2021/05/14 14:52:29;;;;;;;1.30;1.05;;;15.30;76.20;;;;;;6271987;28;20628;-76
2021/05/14 14:55:31;;;;;;;3.40;1.38;;;15.20;76.40;;;;;;6272611;28;20053;-77
2021/05/14 14:58:34;;;;;;;1.95;1.00;;;15.20;75.50;;;;;;6271683;28;20136;-77
2021/05/14 15:01:35;;;;;;;2.72;0.77;;;15.30;76.20;;;;;;6271744;28;20518;-76
2021/05/14 15:04:37;;;;;;;1.00;0.68;;;15.30;76.50;;;;;;6271999;28;20449;-77
2021/05/14 15:07:39;;;;;;;2.50;0.75;;;15.40;75.30;;;;;;6272314;28;20216;-77
2021/05/14 15:10:40;;;;;;;0.68;0.63;;;15.60;74.80;;;;;;6271601;28;20056;-77
2021/05/14 15:13:41;;;;;;;1.25;0.50;;;15.80;75.20;;;;;;6274218;28;20060;-73
2021/05/14 15:16:44;;;;;;;0.90;0.60;;;16.10;72.60;;;;;;6273828;28;20049;-76
2021/05/14 15:19:46;;;;;;;0.77;0.45;;;16.60;71.10;;;;;;6274612;28;20142;-77
2021/05/14 15:22:49;;;;;;;1.70;1.42;;;;;;;;;;6276831;28;20068;-77
2021/05/14 15:25:50;;;;;;;8.30;7.57;;;17.60;67.50;;;;;;6276692;28;20641;-76
2021/05/14 15:28:51;;;;;;;16.33;14.77;;;17.80;67.30;;;;;;6276680;28;20133;-77
2021/05/14 15:31:52;;;;;;;1.52;1.23;;;17.80;67.20;;;;;;6276233;28;20658;-76
2021/05/14 15:34:55;;;;;;;1.67;1.30;;;17.70;67.00;;;;;;6275290;28;20080;-77
2021/05/14 15:37:56;;;;;;;2.53;1.27;;;17.80;66.30;;;;;;6276277;28;20057;-77
2021/05/14 15:40:58;;;;;;;1.42;0.40;;;17.90;66.10;;;;;;6275951;28;20040;-77
2021/05/14 15:43:59;;;;;;;1.52;0.43;;;18.00;64.70;;;;;;6275651;28;20396;-78
2021/05/14 15:47:01;;;;;;;1.27;0.40;;;18.20;64.80;;;;;;6279499;28;20134;-78
2021/05/14 15:50:04;;;;;;;0.75;0.38;;;18.40;64.80;;;;;;6279592;28;20061;-78
2021/05/14 15:53:05;;;;;;;3.40;0.45;;;18.50;64.10;;;;;;6278948;28;20061;-79
2021/05/14 15:56:06;;;;;;;0.70;0.30;;;18.70;62.10;;;;;;6277761;28;20052;-78
2021/05/14 15:59:08;;;;;;;3.15;0.20;;;18.80;62.30;;;;;;6278085;28;20083;-77